Time;durP1;ratioP1;P1;durP2;ratioP2;P2;SDS_P1;SDS_P2;PMS_P1;PMS_P2;Temp;Humidity;BMP_temperature;BMP_pressure;BME280_temperature;BME280_humidity;BME280_pressure;Samples;Min_cycle;Max_cycle;Signal;HPM_P1;HPM_P2
2022/03/10 00:01:26;;;;;;;10.13;4.88;;;9.10;69.70;;;;;;5064475;28;20035;-66
2022/03/10 00:03:52;;;;;;;14.77;5.25;;;9.10;69.60;;;;;;5047541;28;20462;-66
2022/03/10 00:06:17;;;;;;;12.45;6.03;;;9.10;69.60;;;;;;5048713;28;20025;-66
2022/03/10 00:08:43;;;;;;;15.52;6.30;;;9.00;69.60;;;;;;5047993;28;20087;-66
2022/03/10 00:11:09;;;;;;;12.80;6.15;;;9.00;69.60;;;;;;5047494;28;20037;-66
2022/03/10 00:13:34;;;;;;;20.55;5.53;;;9.00;69.50;;;;;;5041881;28;20550;-66
2022/03/10 00:16:00;;;;;;;29.17;8.15;;;9.00;69.60;;;;;;5068103;28;20432;-66
2022/03/10 00:18:26;;;;;;;23.50;9.65;;;9.00;69.50;;;;;;5054666;28;20032;-66
2022/03/10 00:20:52;;;;;;;18.50;7.05;;;9.00;69.70;;;;;;5051126;28;20460;-66
2022/03/10 00:23:18;;;;;;;22.27;6.95;;;9.00;69.70;;;;;;5045659;28;20116;-66
2022/03/10 00:25:44;;;;;;;12.30;6.15;;;9.00;69.70;;;;;;5047743;28;20048;-66
2022/03/10 00:28:09;;;;;;;11.23;4.90;;;9.00;69.70;;;;;;5048176;28;20112;-66
2022/03/10 00:30:36;;;;;;;12.88;5.47;;;9.00;69.60;;;;;;5052186;28;20060;-66
2022/03/10 00:33:02;;;;;;;12.80;5.10;;;9.00;69.70;;;;;;5055995;28;20075;-66
2022/03/10 00:35:29;;;;;;;14.15;5.10;;;9.00;69.70;;;;;;5051784;28;20478;-66
2022/03/10 00:37:56;;;;;;;18.00;6.53;;;9.00;69.70;;;;;;5052016;28;20535;-67
2022/03/10 00:40:21;;;;;;;12.98;6.00;;;9.00;69.70;;;;;;5051023;28;20128;-66
2022/03/10 00:42:47;;;;;;;12.18;5.35;;;9.00;69.70;;;;;;5052343;28;20525;-66
2022/03/10 00:45:14;;;;;;;16.08;5.63;;;9.00;69.60;;;;;;5048472;28;20025;-66
2022/03/10 00:47:40;;;;;;;15.02;5.57;;;9.00;69.60;;;;;;5050981;28;20025;-66
2022/03/10 00:50:08;;;;;;;15.55;5.32;;;9.00;69.70;;;;;;5062262;28;20032;-66
2022/03/10 00:52:41;;;;;;;14.30;6.65;;;9.00;69.80;;;;;;5051036;28;20017;-66
2022/03/10 00:55:09;;;;;;;15.30;6.30;;;9.00;69.50;;;;;;5047107;28;20749;-65
2022/03/10 00:57:34;;;;;;;16.13;6.55;;;9.00;69.70;;;;;;5044706;28;20018;-66
2022/03/10 01:00:00;;;;;;;13.07;5.72;;;9.00;69.70;;;;;;5031245;28;20033;-66
2022/03/10 01:02:25;;;;;;;12.27;4.82;;;8.90;69.60;;;;;;5020687;28;20036;-66
2022/03/10 01:04:51;;;;;;;9.93;4.75;;;8.90;69.60;;;;;;5066521;28;20095;-66
2022/03/10 01:07:17;;;;;;;13.55;5.68;;;8.90;69.60;;;;;;5031628;28;20081;-66
2022/03/10 01:09:42;;;;;;;11.48;4.80;;;8.90;69.70;;;;;;5013832;28;20033;-66
2022/03/10 01:12:08;;;;;;;16.27;5.50;;;8.90;69.70;;;;;;5030256;28;20491;-66
2022/03/10 01:14:33;;;;;;;8.35;4.25;;;8.90;69.60;;;;;;5045671;28;20037;-66
2022/03/10 01:16:59;;;;;;;10.68;4.95;;;8.90;69.60;;;;;;5050162;28;20079;-66
2022/03/10 01:19:25;;;;;;;14.07;5.75;;;8.90;69.60;;;;;;5061554;28;20032;-66
2022/03/10 01:21:51;;;;;;;11.40;4.65;;;8.90;69.60;;;;;;5051064;28;20453;-67
2022/03/10 01:24:16;;;;;;;14.95;5.20;;;8.90;69.60;;;;;;5043497;28;20029;-66
2022/03/10 01:26:42;;;;;;;7.95;4.70;;;8.90;70.20;;;;;;5048095;28;20347;-66
2022/03/10 01:29:08;;;;;;;9.23;4.43;;;8.90;69.60;;;;;;5031640;28;20029;-65
2022/03/10 01:31:33;;;;;;;7.20;4.18;;;8.90;69.70;;;;;;5030630;28;20045;-66
2022/03/10 01:33:59;;;;;;;16.38;5.35;;;8.90;69.80;;;;;;5043913;28;20043;-66
2022/03/10 01:36:25;;;;;;;13.48;4.75;;;8.90;69.80;;;;;;5050749;28;20060;-66
2022/03/10 01:38:51;;;;;;;13.52;5.03;;;8.90;69.80;;;;;;5049327;28;20025;-66
2022/03/10 01:41:17;;;;;;;10.00;4.25;;;8.90;69.80;;;;;;5050287;28;20032;-65
2022/03/10 01:44:00;;;;;;;19.83;4.57;;;8.90;69.70;;;;;;5050459;28;20021;-66
2022/03/10 01:46:26;;;;;;;11.43;4.68;;;8.90;69.80;;;;;;5051757;28;20025;-66
2022/03/10 01:51:20;;;;;;;10.32;4.82;;;8.90;69.60;;;;;;5031743;22;20136;-62
2022/03/10 01:53:48;;;;;;;11.88;5.15;;;8.90;69.70;;;;;;5008051;28;20037;-62
2022/03/10 01:56:15;;;;;;;8.10;3.78;;;8.90;69.70;;;;;;4991978;28;20036;-63
2022/03/10 01:58:40;;;;;;;10.52;4.70;;;8.90;69.70;;;;;;5010828;28;20068;-62
2022/03/10 02:01:09;;;;;;;12.40;5.13;;;8.90;69.70;;;;;;5010283;28;20061;-62
2022/03/10 02:03:34;;;;;;;12.48;4.70;;;8.90;69.70;;;;;;5009592;28;20329;-62
2022/03/10 02:06:00;;;;;;;8.00;4.70;;;8.90;69.50;;;;;;5011305;28;20164;-62
2022/03/10 02:11:11;;;;;;;11.82;4.47;;;8.80;69.70;;;;;;5010695;28;20475;-62
2022/03/10 02:13:36;;;;;;;8.07;5.15;;;8.90;69.60;;;;;;5010159;28;20033;-62
2022/03/10 02:18:46;;;;;;;11.82;4.70;;;8.80;69.60;;;;;;5014577;28;22214;-62
2022/03/10 02:21:12;;;;;;;9.93;4.78;;;8.80;69.60;;;;;;4990321;28;20503;-62
2022/03/10 02:23:38;;;;;;;12.65;4.03;;;8.80;69.60;;;;;;4991086;28;20035;-62
2022/03/10 02:26:05;;;;;;;10.10;4.80;;;8.80;69.70;;;;;;4990780;28;20023;-62
2022/03/10 02:28:32;;;;;;;11.73;4.35;;;8.80;69.60;;;;;;4991346;28;20109;-62
2022/03/10 02:30:58;;;;;;;9.88;5.00;;;8.80;69.70;;;;;;4974255;28;20089;-62
2022/03/10 02:33:24;;;;;;;8.70;3.78;;;8.80;69.60;;;;;;4995774;28;20459;-62
2022/03/10 02:35:50;;;;;;;9.63;4.75;;;8.80;69.60;;;;;;5010519;28;20092;-62
2022/03/10 02:38:18;;;;;;;15.15;4.65;;;8.80;69.80;;;;;;5010505;28;20101;-62
2022/03/10 02:40:44;;;;;;;8.90;4.28;;;8.80;69.50;;;;;;5009120;28;20029;-62
2022/03/10 02:43:10;;;;;;;9.35;4.25;;;8.80;69.60;;;;;;5008948;28;20033;-62
2022/03/10 02:45:36;;;;;;;8.38;4.07;;;8.80;69.60;;;;;;5010290;28;20022;-62
2022/03/10 02:48:02;;;;;;;12.23;4.22;;;8.80;69.80;;;;;;5010371;28;20447;-62
2022/03/10 02:50:28;;;;;;;13.68;4.40;;;8.80;69.70;;;;;;5010266;28;20049;-62
2022/03/10 02:52:54;;;;;;;8.85;3.67;;;8.80;69.60;;;;;;5011890;28;20026;-62
2022/03/10 02:55:19;;;;;;;11.85;5.07;;;8.80;69.70;;;;;;5012071;28;20395;-62
2022/03/10 02:57:49;;;;;;;10.65;4.03;;;8.80;69.60;;;;;;5012121;28;20212;-62
2022/03/10 03:00:16;;;;;;;10.57;5.03;;;8.80;69.60;;;;;;5008369;28;20068;-62
2022/03/10 03:02:42;;;;;;;12.25;4.25;;;8.80;69.50;;;;;;5009580;28;20034;-62
2022/03/10 03:05:09;;;;;;;9.05;4.03;;;8.80;69.60;;;;;;5026537;28;20063;-62
2022/03/10 03:07:35;;;;;;;8.68;4.30;;;8.80;69.80;;;;;;5030293;28;20021;-62
2022/03/10 03:10:01;;;;;;;14.90;4.75;;;8.80;69.70;;;;;;5009045;28;20030;-62
2022/03/10 03:12:27;;;;;;;20.13;5.78;;;8.80;69.60;;;;;;4989783;28;20038;-62
2022/03/10 03:14:54;;;;;;;10.95;4.85;;;8.70;69.60;;;;;;4990169;28;20073;-62
2022/03/10 03:17:19;;;;;;;12.40;4.82;;;8.70;69.60;;;;;;4989653;28;20022;-62
2022/03/10 03:19:45;;;;;;;12.30;5.85;;;8.70;69.60;;;;;;5004080;28;20411;-62
2022/03/10 03:22:11;;;;;;;13.40;5.72;;;8.70;69.60;;;;;;5009243;28;20537;-61
2022/03/10 03:24:37;;;;;;;12.82;5.35;;;8.70;69.60;;;;;;5009723;28;20025;-62
2022/03/10 03:27:03;;;;;;;14.65;5.60;;;8.80;69.60;;;;;;5007374;28;20105;-62
2022/03/10 03:29:29;;;;;;;10.88;5.28;;;8.70;69.60;;;;;;4991067;28;20022;-62
2022/03/10 03:31:55;;;;;;;10.98;4.90;;;8.70;69.50;;;;;;4985319;28;20471;-62
2022/03/10 03:34:21;;;;;;;14.05;5.00;;;8.70;69.50;;;;;;5011469;28;20568;-62
2022/03/10 03:36:47;;;;;;;9.65;4.90;;;8.80;69.50;;;;;;5007578;28;20023;-62
2022/03/10 03:39:14;;;;;;;12.45;4.75;;;8.70;69.60;;;;;;5008967;28;20037;-62
2022/03/10 03:41:40;;;;;;;12.63;4.88;;;8.70;69.50;;;;;;5008388;28;20030;-62
2022/03/10 03:44:07;;;;;;;9.57;4.28;;;8.70;69.50;;;;;;5007850;28;20275;-62
2022/03/10 03:46:33;;;;;;;11.73;4.28;;;8.80;69.50;;;;;;5008711;28;20057;-63
2022/03/10 03:48:58;;;;;;;9.48;4.53;;;8.80;69.30;;;;;;5008204;28;20022;-62
2022/03/10 03:51:25;;;;;;;12.65;4.68;;;8.80;69.50;;;;;;5007442;28;20562;-62
2022/03/10 03:53:50;;;;;;;9.02;4.57;;;8.70;69.50;;;;;;5009170;28;20049;-62
2022/03/10 03:56:17;;;;;;;10.27;4.63;;;8.70;69.50;;;;;;5009396;28;20030;-62
2022/03/10 03:58:43;;;;;;;9.93;4.68;;;8.70;69.30;;;;;;5000831;28;20117;-61
2022/03/10 04:01:09;;;;;;;12.10;4.78;;;8.70;69.60;;;;;;4989081;28;20030;-62
2022/03/10 04:03:34;;;;;;;11.25;4.70;;;8.80;69.40;;;;;;4998030;28;20545;-62
2022/03/10 04:06:00;;;;;;;12.18;4.50;;;8.80;69.20;;;;;;5015277;28;20026;-62
2022/03/10 04:08:26;;;;;;;12.48;4.70;;;8.80;70.10;;;;;;5013105;28;20030;-62
2022/03/10 04:10:52;;;;;;;9.60;4.43;;;8.70;69.40;;;;;;5010440;28;20393;-62
2022/03/10 04:13:21;;;;;;;6.15;3.50;;;8.70;69.60;;;;;;5012625;28;20050;-62
2022/03/10 04:15:51;;;;;;;10.90;5.20;;;8.70;69.60;;;;;;5013029;28;20113;-61
2022/03/10 04:18:17;;;;;;;10.60;4.60;;;8.70;69.80;;;;;;4995622;28;20025;-61
2022/03/10 04:20:47;;;;;;;7.25;3.92;;;8.70;69.50;;;;;;5011217;28;20099;-62
2022/03/10 04:23:14;;;;;;;11.80;5.20;;;8.70;69.60;;;;;;5012130;28;20061;-62
2022/03/10 04:25:40;;;;;;;13.63;4.43;;;8.70;69.70;;;;;;5012119;28;20273;-62
2022/03/10 04:28:05;;;;;;;12.68;5.63;;;8.70;69.60;;;;;;5012089;28;20515;-62
2022/03/10 04:30:34;;;;;;;11.77;5.30;;;8.70;70.40;;;;;;5010946;28;20069;-62
2022/03/10 04:33:00;;;;;;;14.27;5.00;;;8.70;69.50;;;;;;5011227;28;20083;-62
2022/03/10 04:35:27;;;;;;;7.90;4.63;;;8.60;69.80;;;;;;5005182;28;20402;-62
2022/03/10 04:37:54;;;;;;;10.65;5.00;;;8.70;69.50;;;;;;5013230;28;20071;-61
2022/03/10 04:40:20;;;;;;;11.55;5.30;;;8.70;69.50;;;;;;5012199;28;20502;-63
2022/03/10 04:42:47;;;;;;;15.52;5.45;;;8.70;69.70;;;;;;4994241;28;20092;-62
2022/03/10 04:45:13;;;;;;;14.95;5.72;;;8.60;69.60;;;;;;4992984;28;20095;-62
2022/03/10 04:47:41;;;;;;;10.25;4.78;;;8.70;69.50;;;;;;4992975;28;20027;-62
2022/03/10 04:50:10;;;;;;;10.68;5.00;;;8.70;69.40;;;;;;5007253;28;20026;-62
2022/03/10 04:52:36;;;;;;;12.48;5.13;;;8.60;69.40;;;;;;4999013;28;20034;-61
2022/03/10 04:55:02;;;;;;;11.77;5.78;;;8.60;69.40;;;;;;4992168;28;20546;-62
2022/03/10 04:57:27;;;;;;;16.25;5.45;;;8.70;69.70;;;;;;4993068;28;20033;-61
2022/03/10 04:59:53;;;;;;;14.57;4.53;;;8.70;69.50;;;;;;4993012;28;20415;-62
2022/03/10 05:02:19;;;;;;;12.77;5.30;;;8.60;69.50;;;;;;4993206;28;20030;-62
2022/03/10 05:04:45;;;;;;;12.40;5.13;;;8.60;69.40;;;;;;5014684;28;20125;-61
2022/03/10 05:07:11;;;;;;;12.73;4.38;;;8.60;69.50;;;;;;5032244;28;20049;-61
2022/03/10 05:09:37;;;;;;;9.43;4.28;;;8.60;69.30;;;;;;5016130;28;20380;-61
2022/03/10 05:12:03;;;;;;;8.05;4.18;;;8.60;69.20;;;;;;5012217;28;20054;-61
2022/03/10 05:14:30;;;;;;;11.07;5.30;;;8.60;69.30;;;;;;5008584;28;20056;-61
2022/03/10 05:16:55;;;;;;;13.68;5.60;;;8.60;69.20;;;;;;5011077;28;20026;-61
2022/03/10 05:19:21;;;;;;;13.52;5.47;;;8.60;69.20;;;;;;5010741;28;20034;-61
2022/03/10 05:21:46;;;;;;;13.43;5.10;;;8.60;69.20;;;;;;5012013;28;20473;-61
2022/03/10 05:24:12;;;;;;;9.98;4.53;;;8.60;69.30;;;;;;5010383;28;20026;-61
2022/03/10 05:26:38;;;;;;;11.20;4.75;;;8.70;69.30;;;;;;5012455;28;20037;-61
2022/03/10 05:29:04;;;;;;;9.10;4.22;;;8.60;69.10;;;;;;5010471;28;20486;-61
2022/03/10 05:31:30;;;;;;;16.38;5.28;;;8.60;69.20;;;;;;5011246;28;20049;-61
2022/03/10 05:33:56;;;;;;;12.20;5.10;;;8.60;69.10;;;;;;5009501;28;20127;-61
2022/03/10 05:36:22;;;;;;;10.73;5.20;;;8.60;69.20;;;;;;5011544;28;20029;-61
2022/03/10 05:38:47;;;;;;;10.82;4.88;;;8.60;69.10;;;;;;5010297;28;20083;-61
2022/03/10 05:41:13;;;;;;;9.65;4.30;;;8.60;69.00;;;;;;5016075;28;20021;-61
2022/03/10 05:43:39;;;;;;;10.50;4.72;;;8.60;69.10;;;;;;5020402;28;20108;-61
2022/03/10 05:46:05;;;;;;;10.65;4.30;;;8.60;68.90;;;;;;5009389;28;20034;-61
2022/03/10 05:48:31;;;;;;;13.90;4.78;;;8.70;69.00;;;;;;5008829;28;20014;-61
2022/03/10 05:50:58;;;;;;;10.73;4.80;;;8.70;69.10;;;;;;5007601;28;20056;-62
2022/03/10 05:53:24;;;;;;;8.70;4.78;;;8.70;69.00;;;;;;5011137;28;20026;-62
2022/03/10 05:55:49;;;;;;;12.07;4.97;;;8.60;69.10;;;;;;5003891;28;20034;-61
2022/03/10 05:58:15;;;;;;;10.80;3.88;;;8.60;68.90;;;;;;4991707;28;20534;-61
2022/03/10 06:00:40;;;;;;;10.02;5.03;;;8.60;68.90;;;;;;4991584;28;20499;-61
2022/03/10 06:03:06;;;;;;;11.25;4.80;;;8.60;69.10;;;;;;4993139;28;20030;-62
2022/03/10 06:05:33;;;;;;;13.57;5.18;;;8.60;68.90;;;;;;5010821;28;20494;-62
2022/03/10 06:07:59;;;;;;;14.38;5.35;;;8.60;69.10;;;;;;4992047;28;20058;-62
2022/03/10 06:10:24;;;;;;;11.40;3.60;;;8.70;68.80;;;;;;5002314;28;20029;-61
2022/03/10 06:12:51;;;;;;;14.30;5.18;;;8.70;68.60;;;;;;5009601;28;20030;-62
2022/03/10 06:15:16;;;;;;;11.70;5.47;;;8.60;68.90;;;;;;5010311;28;20359;-61
2022/03/10 06:17:42;;;;;;;12.57;4.95;;;8.60;69.00;;;;;;5009592;28;20030;-62
2022/03/10 06:20:08;;;;;;;17.10;5.18;;;8.60;68.80;;;;;;5007670;28;20071;-62
2022/03/10 06:22:35;;;;;;;11.77;5.07;;;8.60;68.80;;;;;;4997025;28;20109;-62
2022/03/10 06:25:01;;;;;;;12.65;5.50;;;8.60;68.70;;;;;;4991209;28;20037;-62
2022/03/10 06:27:27;;;;;;;13.07;5.13;;;8.60;68.90;;;;;;4991716;28;20031;-62
2022/03/10 06:29:53;;;;;;;18.08;6.07;;;8.70;68.80;;;;;;4991154;28;20034;-62
2022/03/10 06:32:21;;;;;;;12.10;4.85;;;8.70;68.80;;;;;;4990523;28;20049;-61
2022/03/10 06:34:48;;;;;;;12.70;5.40;;;8.70;68.40;;;;;;4990228;28;20030;-62
2022/03/10 06:37:14;;;;;;;11.18;4.35;;;8.80;68.50;;;;;;5009671;28;20083;-61
2022/03/10 06:39:40;;;;;;;12.60;5.00;;;8.80;68.20;;;;;;5008481;28;20030;-61
2022/03/10 06:42:06;;;;;;;9.40;4.72;;;8.80;68.00;;;;;;5009788;28;20483;-61
2022/03/10 06:44:33;;;;;;;10.40;5.53;;;8.90;68.00;;;;;;5010519;28;20060;-61
2022/03/10 06:46:58;;;;;;;10.80;4.93;;;8.90;68.00;;;;;;5009462;28;20030;-61
2022/03/10 06:49:25;;;;;;;10.75;4.50;;;8.90;68.30;;;;;;5007226;28;20022;-65
2022/03/10 06:51:51;;;;;;;9.20;4.72;;;8.90;67.80;;;;;;5004605;28;20033;-65
2022/03/10 06:54:20;;;;;;;14.52;4.90;;;8.80;68.60;;;;;;5008534;28;20022;-65
2022/03/10 06:56:46;;;;;;;16.88;6.60;;;8.80;68.00;;;;;;5009926;28;20044;-65
2022/03/10 06:59:12;;;;;;;11.70;5.10;;;8.80;67.60;;;;;;5009103;28;20514;-65
2022/03/10 07:01:38;;;;;;;12.68;5.25;;;8.80;66.90;;;;;;5009240;28;20030;-65
2022/03/10 07:04:03;;;;;;;15.57;6.13;;;8.70;66.10;;;;;;5008665;28;20865;-65
2022/03/10 07:06:29;;;;;;;16.80;5.28;;;8.70;64.00;;;;;;5010603;28;20479;-64
2022/03/10 07:08:55;;;;;;;18.00;6.72;;;8.70;63.10;;;;;;5005776;28;20073;-65
2022/03/10 07:11:21;;;;;;;14.32;5.18;;;8.60;62.80;;;;;;5007809;28;20037;-66
2022/03/10 07:13:47;;;;;;;16.20;5.82;;;8.60;62.20;;;;;;5009945;28;20014;-64
2022/03/10 07:16:13;;;;;;;12.65;5.55;;;8.60;62.00;;;;;;5005739;28;20052;-67
2022/03/10 07:18:38;;;;;;;12.68;5.00;;;8.60;60.90;;;;;;5004672;28;20379;-66
2022/03/10 07:21:04;;;;;;;10.77;5.28;;;8.50;60.70;;;;;;5005349;28;20037;-65
2022/03/10 07:23:33;;;;;;;16.40;5.60;;;8.50;60.60;;;;;;4993421;28;20037;-65
2022/03/10 07:25:59;;;;;;;11.40;5.57;;;8.60;60.80;;;;;;5008285;28;20050;-66
2022/03/10 07:28:25;;;;;;;18.25;5.22;;;8.60;61.00;;;;;;5002621;28;20463;-64
2022/03/10 07:30:51;;;;;;;12.82;4.55;;;8.70;61.30;;;;;;5008520;28;20117;-66
2022/03/10 07:33:17;;;;;;;14.68;5.28;;;8.70;61.50;;;;;;5009095;28;20093;-64
2022/03/10 07:39:06;;;;;;;9.70;4.68;;;8.80;61.40;;;;;;5010604;28;20040;-64
2022/03/10 07:41:32;;;;;;;21.48;4.88;;;8.90;60.70;;;;;;5015133;28;20029;-65
2022/03/10 07:43:57;;;;;;;10.75;5.00;;;8.90;60.60;;;;;;5015620;28;20080;-64
2022/03/10 07:46:23;;;;;;;11.57;4.57;;;8.90;60.80;;;;;;5012842;28;20476;-65
2022/03/10 07:48:50;;;;;;;11.43;5.18;;;8.90;61.50;;;;;;5015353;28;20116;-64
2022/03/10 07:51:19;;;;;;;14.48;6.43;;;8.90;61.30;;;;;;5014025;28;20060;-63
2022/03/10 07:53:45;;;;;;;10.90;5.50;;;8.90;60.90;;;;;;4997920;28;20030;-63
2022/03/10 07:56:11;;;;;;;11.45;4.45;;;9.00;60.60;;;;;;5006363;28;20125;-63
2022/03/10 07:58:36;;;;;;;9.85;5.18;;;9.00;60.90;;;;;;5016084;28;20026;-65
2022/03/10 08:01:02;;;;;;;13.52;5.28;;;9.00;60.50;;;;;;5016073;28;20049;-65
2022/03/10 08:03:28;;;;;;;16.65;6.90;;;9.00;60.40;;;;;;5015396;28;20030;-64
2022/03/10 08:05:54;;;;;;;13.57;5.35;;;9.00;59.60;;;;;;5014116;28;20028;-64
2022/03/10 08:08:20;;;;;;;12.90;6.03;;;9.00;60.30;;;;;;5015889;28;20030;-63
2022/03/10 08:10:46;;;;;;;15.10;6.35;;;9.00;61.10;;;;;;5015472;28;20034;-63
2022/03/10 08:13:12;;;;;;;15.27;7.60;;;9.10;61.40;;;;;;5014593;28;20026;-65
2022/03/10 08:15:38;;;;;;;17.20;6.65;;;9.10;62.60;;;;;;5015275;28;20043;-64
2022/03/10 08:18:04;;;;;;;16.67;8.65;;;9.20;63.80;;;;;;5012052;28;20029;-64
2022/03/10 08:20:29;;;;;;;16.65;6.10;;;9.30;65.30;;;;;;5010649;28;20029;-65
2022/03/10 08:22:55;;;;;;;15.93;6.78;;;9.30;63.00;;;;;;5010982;28;20370;-65
2022/03/10 08:25:21;;;;;;;13.88;6.78;;;9.30;63.90;;;;;;5015443;28;20021;-64
2022/03/10 08:27:49;;;;;;;11.48;6.63;;;9.40;61.50;;;;;;5006891;28;20037;-65
2022/03/10 08:30:16;;;;;;;10.40;6.13;;;9.40;62.00;;;;;;4996862;28;20387;-66
2022/03/10 08:32:45;;;;;;;17.25;6.65;;;9.50;62.20;;;;;;5002278;28;20033;-65
2022/03/10 08:35:11;;;;;;;18.90;7.80;;;9.50;62.00;;;;;;5014763;28;20030;-64
2022/03/10 08:37:38;;;;;;;12.07;6.28;;;9.60;61.70;;;;;;5015143;28;20030;-66
2022/03/10 08:40:05;;;;;;;18.15;6.22;;;9.60;61.20;;;;;;5015654;28;20041;-64
2022/03/10 08:42:31;;;;;;;11.63;6.05;;;9.60;60.70;;;;;;5015093;28;20053;-64
2022/03/10 08:44:56;;;;;;;12.38;5.93;;;9.60;59.90;;;;;;5015480;28;20127;-64
2022/03/10 08:47:22;;;;;;;15.68;6.63;;;9.70;60.00;;;;;;5015736;28;20022;-65
2022/03/10 08:49:48;;;;;;;11.68;6.35;;;9.80;60.10;;;;;;5013928;28;20431;-64
2022/03/10 08:52:13;;;;;;;16.92;7.45;;;9.80;59.70;;;;;;5021509;28;20115;-65
2022/03/10 08:54:39;;;;;;;13.75;6.20;;;9.80;59.30;;;;;;5032078;28;20509;-65
2022/03/10 08:57:05;;;;;;;11.52;6.05;;;9.90;59.00;;;;;;5032586;28;20514;-65
2022/03/10 08:59:30;;;;;;;15.48;6.82;;;9.90;59.40;;;;;;5032193;28;20096;-65
2022/03/10 09:01:57;;;;;;;16.85;6.72;;;9.90;59.70;;;;;;5031636;28;20443;-65
2022/03/10 09:04:23;;;;;;;13.18;5.68;;;9.90;59.40;;;;;;5032218;28;20035;-65
2022/03/10 09:06:48;;;;;;;9.45;5.25;;;9.90;61.00;;;;;;5025311;28;20290;-64
2022/03/10 09:09:14;;;;;;;11.32;6.68;;;9.90;60.50;;;;;;5012099;28;20046;-65
2022/03/10 09:11:39;;;;;;;16.77;7.72;;;10.00;59.60;;;;;;5011671;28;20387;-64
2022/03/10 09:14:05;;;;;;;15.65;6.50;;;9.90;60.10;;;;;;5012209;28;20024;-65
2022/03/10 09:16:31;;;;;;;16.40;8.77;;;10.00;60.10;;;;;;5011892;28;20049;-65
2022/03/10 09:18:56;;;;;;;15.50;8.13;;;10.00;59.70;;;;;;5012466;28;20034;-64
2022/03/10 09:21:22;;;;;;;14.80;6.95;;;10.00;60.90;;;;;;5010975;28;20018;-65
2022/03/10 09:23:48;;;;;;;15.18;5.65;;;10.00;59.90;;;;;;5014881;28;20060;-65
2022/03/10 09:26:13;;;;;;;15.73;7.00;;;10.00;59.20;;;;;;5012248;28;20018;-64
2022/03/10 09:28:39;;;;;;;15.18;7.55;;;10.00;58.80;;;;;;5011766;28;20029;-66
2022/03/10 09:31:04;;;;;;;14.23;7.10;;;10.00;59.50;;;;;;5012022;28;20022;-65
2022/03/10 09:33:30;;;;;;;17.38;7.97;;;10.10;59.90;;;;;;5010775;28;20034;-65
2022/03/10 09:35:56;;;;;;;16.20;8.00;;;10.10;58.80;;;;;;5012068;28;20066;-66
2022/03/10 09:38:22;;;;;;;17.42;7.13;;;10.20;58.20;;;;;;5025945;28;20041;-65
2022/03/10 09:40:52;;;;;;;8.63;3.58;;;10.20;57.70;;;;;;5031629;28;20116;-64
2022/03/10 09:43:20;;;;;;;;;;;10.20;57.70;;;;;;5031703;28;20053;-65
2022/03/10 09:45:46;;;;;;;17.48;6.68;;;10.20;58.40;;;;;;5031647;28;19984;-65
2022/03/10 09:48:12;;;;;;;18.67;6.70;;;10.20;58.80;;;;;;5030952;28;20026;-65
2022/03/10 09:50:38;;;;;;;14.25;6.03;;;10.30;59.10;;;;;;5011211;28;20073;-66
2022/03/10 09:53:04;;;;;;;15.23;6.45;;;10.30;59.00;;;;;;5010421;28;20400;-66
2022/03/10 09:55:30;;;;;;;18.13;6.97;;;10.30;58.40;;;;;;5011367;28;20026;-66
2022/03/10 09:57:55;;;;;;;11.05;5.50;;;10.30;58.50;;;;;;5011385;28;20026;-66
2022/03/10 10:00:21;;;;;;;11.73;5.65;;;10.40;58.60;;;;;;5010983;28;20184;-64
2022/03/10 10:02:47;;;;;;;13.27;5.88;;;10.40;58.70;;;;;;5010143;28;20033;-65
2022/03/10 10:05:20;;;;;;;14.25;5.88;;;10.40;58.80;;;;;;5011059;28;20034;-66
2022/03/10 10:08:13;;;;;;;14.90;5.70;;;10.40;59.10;;;;;;5019400;28;20496;-64
2022/03/10 10:10:44;;;;;;;11.23;5.43;;;10.50;59.80;;;;;;5031548;28;20037;-65
2022/03/10 10:13:12;;;;;;;;;;;10.60;60.80;;;;;;5031237;28;20025;-65
2022/03/10 10:15:40;;;;;;;13.38;6.68;;;10.60;60.40;;;;;;5011064;28;19948;-66
2022/03/10 10:18:13;;;;;;;10.43;6.70;;;10.60;59.70;;;;;;5010756;28;20256;-66
2022/03/10 10:20:49;;;;;;;11.55;5.40;;;10.60;60.30;;;;;;5011222;28;20080;-66
2022/03/10 10:23:20;;;;;;;12.85;6.32;;;10.60;61.60;;;;;;5010737;28;20120;-64
2022/03/10 10:25:50;;;;;;;;;;;10.60;61.10;;;;;;5011961;28;20087;-65
2022/03/10 10:28:23;;;;;;;18.90;7.50;;;10.60;60.80;;;;;;4992250;28;19916;-66
2022/03/10 10:31:00;;;;;;;13.27;5.90;;;10.60;59.80;;;;;;5010429;28;20050;-65
2022/03/10 10:33:27;;;;;;;14.65;5.35;;;10.60;60.00;;;;;;4992645;28;20387;-66
2022/03/10 10:36:12;;;;;;;16.35;6.38;;;10.60;61.50;;;;;;5010913;28;20029;-65
2022/03/10 10:38:39;;;;;;;12.23;6.22;;;10.70;61.90;;;;;;5022679;28;20029;-66
2022/03/10 10:41:28;;;;;;;15.98;6.78;;;10.70;60.30;;;;;;5030094;28;20029;-65
2022/03/10 10:43:54;;;;;;;15.00;6.50;;;10.80;61.60;;;;;;5030323;28;20026;-66
2022/03/10 10:46:30;;;;;;;13.63;6.60;;;10.80;60.80;;;;;;5031022;28;20025;-65
2022/03/10 10:48:57;;;;;;;11.05;6.68;;;10.90;61.50;;;;;;5024438;28;20125;-66
2022/03/10 10:51:56;;;;;;;11.27;6.72;;;11.00;61.40;;;;;;5009766;28;20092;-65
2022/03/10 10:54:29;;;;;;;16.85;7.07;;;11.00;61.10;;;;;;5029419;28;20029;-65
2022/03/10 10:57:02;;;;;;;16.00;6.40;;;11.00;60.90;;;;;;5029951;28;20285;-66
2022/03/10 10:59:39;;;;;;;8.70;4.47;;;11.10;59.90;;;;;;5030115;28;20033;-67
2022/03/10 11:02:16;;;;;;;6.95;4.60;;;11.10;60.60;;;;;;5014178;28;20017;-65
2022/03/10 11:04:52;;;;;;;13.15;5.47;;;11.20;60.40;;;;;;5010606;28;20033;-66
2022/03/10 11:07:19;;;;;;;11.20;6.35;;;11.30;61.20;;;;;;5009909;28;20080;-65
2022/03/10 11:09:48;;;;;;;5.30;2.08;;;11.30;61.90;;;;;;5010129;28;20099;-66
2022/03/10 11:12:16;;;;;;;10.00;5.07;;;11.40;62.00;;;;;;5008136;28;20104;-65
2022/03/10 11:14:42;;;;;;;17.35;5.13;;;11.40;61.50;;;;;;5009985;28;20049;-64
2022/03/10 11:17:08;;;;;;;19.42;6.57;;;11.50;59.30;;;;;;5010669;28;20029;-65
2022/03/10 11:19:37;;;;;;;10.77;4.50;;;11.50;59.20;;;;;;5010582;28;20022;-66
2022/03/10 11:22:21;;;;;;;10.05;4.75;;;11.60;59.10;;;;;;5010979;28;20080;-65
2022/03/10 11:25:26;;;;;;;13.32;6.25;;;11.60;59.20;;;;;;4992989;28;20038;-65
2022/03/10 11:27:59;;;;;;;12.20;5.03;;;11.70;59.30;;;;;;4993828;28;20030;-62
2022/03/10 11:30:26;;;;;;;11.10;5.00;;;11.70;55.20;;;;;;4992714;28;20133;-62
2022/03/10 11:33:04;;;;;;;12.75;5.10;;;11.70;54.20;;;;;;4991924;28;20030;-63
2022/03/10 11:35:32;;;;;;;17.05;5.25;;;11.70;51.80;;;;;;5007742;28;20021;-61
2022/03/10 11:37:59;;;;;;;11.32;5.00;;;11.70;52.90;;;;;;5013941;28;20025;-63
2022/03/10 11:40:51;;;;;;;16.13;5.10;;;11.60;50.70;;;;;;5026268;28;20491;-62
2022/03/10 11:43:20;;;;;;;13.23;4.90;;;11.60;51.00;;;;;;5009361;28;20026;-62
2022/03/10 11:45:46;;;;;;;15.23;5.90;;;11.60;51.70;;;;;;5011632;28;20079;-61
2022/03/10 11:48:30;;;;;;;11.60;5.65;;;11.80;52.30;;;;;;5010783;28;20104;-61
2022/03/10 11:50:56;;;;;;;10.10;5.05;;;11.80;51.90;;;;;;5010518;28;20038;-63
2022/03/10 11:53:21;;;;;;;16.25;5.30;;;11.90;51.60;;;;;;5002455;28;20114;-62
2022/03/10 11:55:50;;;;;;;12.40;5.50;;;11.90;52.70;;;;;;4990348;28;20095;-61
2022/03/10 11:58:36;;;;;;;8.88;4.70;;;12.00;50.70;;;;;;4991372;28;20030;-61
2022/03/10 12:01:02;;;;;;;9.93;4.38;;;12.00;49.80;;;;;;4991852;28;20025;-61
2022/03/10 12:03:35;;;;;;;8.38;4.50;;;11.90;49.10;;;;;;4991768;28;20027;-61
2022/03/10 12:06:02;;;;;;;10.40;4.95;;;12.00;48.30;;;;;;4990982;28;20015;-61
2022/03/10 12:08:35;;;;;;;10.25;4.85;;;12.10;48.50;;;;;;4998050;28;20022;-61
2022/03/10 12:11:03;;;;;;;11.90;5.82;;;12.10;48.60;;;;;;4996884;28;21130;-61
2022/03/10 12:13:33;;;;;;;14.57;4.50;;;12.20;49.40;;;;;;5018906;28;20049;-61
2022/03/10 12:16:00;;;;;;;9.73;4.72;;;12.10;47.90;;;;;;5020876;28;20033;-61
2022/03/10 12:18:31;;;;;;;7.82;3.60;;;12.10;49.50;;;;;;5030055;28;20025;-62
2022/03/10 12:20:58;;;;;;;9.88;4.35;;;12.20;49.60;;;;;;5030706;28;20052;-62
2022/03/10 12:23:26;;;;;;;14.43;4.25;;;12.20;47.00;;;;;;5026069;28;20022;-61
2022/03/10 12:26:00;;;;;;;11.52;3.53;;;12.30;47.20;;;;;;5012819;28;20460;-61
2022/03/10 12:32:00;;;;;;;9.23;3.75;;;12.40;47.40;;;;;;5015400;28;20088;-61
2022/03/10 12:34:26;;;;;;;7.57;4.35;;;12.40;45.90;;;;;;5015583;28;20030;-61
2022/03/10 12:36:54;;;;;;;13.02;4.70;;;12.40;45.00;;;;;;5016018;28;20048;-61
2022/03/10 12:39:26;;;;;;;7.18;4.47;;;12.30;46.20;;;;;;5029350;28;20044;-61
2022/03/10 12:42:02;;;;;;;12.65;4.53;;;12.30;44.90;;;;;;5014201;28;20487;-61
2022/03/10 12:44:28;;;;;;;6.50;3.20;;;12.30;44.80;;;;;;5028926;28;20265;-61
2022/03/10 12:46:54;;;;;;;7.32;3.58;;;12.40;44.90;;;;;;5013887;28;20030;-61
2022/03/10 12:49:37;;;;;;;7.75;3.88;;;12.40;44.00;;;;;;5006728;28;20509;-61
2022/03/10 12:52:16;;;;;;;8.80;4.22;;;12.50;44.10;;;;;;5012751;28;20080;-61
2022/03/10 12:54:44;;;;;;;7.78;3.70;;;12.40;44.00;;;;;;5012648;28;20026;-62
2022/03/10 12:57:10;;;;;;;6.63;3.33;;;12.40;43.60;;;;;;5012756;28;20049;-62
2022/03/10 12:59:38;;;;;;;8.18;3.85;;;12.40;43.40;;;;;;5012799;28;20376;-61
2022/03/10 13:02:36;;;;;;;5.20;2.88;;;12.40;42.10;;;;;;5012465;28;20022;-61